sensor_id;sensor_type;location;lat;lon;timestamp;P1;durP1;ratioP1;P2;durP2;ratioP2
62788;SDS011;66401;42.016;21.454;2023-05-10T00:01:21;3.80;;;3.10;;
62788;SDS011;66401;42.016;21.454;2023-05-10T00:03:46;2.93;;;2.73;;
62788;SDS011;66401;42.016;21.454;2023-05-10T00:06:12;7.87;;;3.27;;
62788;SDS011;66401;42.016;21.454;2023-05-10T00:08:38;3.93;;;3.53;;
62788;SDS011;66401;42.016;21.454;2023-05-10T00:11:03;5.50;;;3.83;;
62788;SDS011;66401;42.016;21.454;2023-05-10T00:13:29;5.17;;;3.87;;
62788;SDS011;66401;42.016;21.454;2023-05-10T00:15:54;7.63;;;4.30;;
62788;SDS011;66401;42.016;21.454;2023-05-10T00:18:20;4.50;;;3.60;;
62788;SDS011;66401;42.016;21.454;2023-05-10T00:20:45;10.90;;;4.30;;
62788;SDS011;66401;42.016;21.454;2023-05-10T00:23:11;7.77;;;4.23;;
62788;SDS011;66401;42.016;21.454;2023-05-10T00:25:37;7.90;;;4.00;;
62788;SDS011;66401;42.016;21.454;2023-05-10T00:28:02;5.60;;;4.07;;
62788;SDS011;66401;42.016;21.454;2023-05-10T00:30:28;4.20;;;3.83;;
62788;SDS011;66401;42.016;21.454;2023-05-10T00:32:53;4.20;;;3.83;;
62788;SDS011;66401;42.016;21.454;2023-05-10T00:35:19;3.97;;;3.63;;
62788;SDS011;66401;42.016;21.454;2023-05-10T00:37:44;4.07;;;3.57;;
62788;SDS011;66401;42.016;21.454;2023-05-10T00:40:10;8.53;;;3.90;;
62788;SDS011;66401;42.016;21.454;2023-05-10T00:42:36;3.90;;;3.27;;
62788;SDS011;66401;42.016;21.454;2023-05-10T00:45:01;3.70;;;3.40;;
62788;SDS011;66401;42.016;21.454;2023-05-10T00:47:27;5.03;;;3.63;;
62788;SDS011;66401;42.016;21.454;2023-05-10T00:49:56;5.50;;;3.40;;
62788;SDS011;66401;42.016;21.454;2023-05-10T00:52:22;4.07;;;3.67;;
62788;SDS011;66401;42.016;21.454;2023-05-10T00:54:49;4.53;;;3.73;;
62788;SDS011;66401;42.016;21.454;2023-05-10T00:57:16;6.40;;;3.67;;
62788;SDS011;66401;42.016;21.454;2023-05-10T00:59:42;4.13;;;3.67;;
62788;SDS011;66401;42.016;21.454;2023-05-10T01:02:08;4.03;;;3.63;;
62788;SDS011;66401;42.016;21.454;2023-05-10T01:04:33;4.83;;;3.43;;
62788;SDS011;66401;42.016;21.454;2023-05-10T01:07:00;4.27;;;3.87;;
62788;SDS011;66401;42.016;21.454;2023-05-10T01:09:26;4.13;;;3.73;;
62788;SDS011;66401;42.016;21.454;2023-05-10T01:11:52;7.30;;;4.10;;
62788;SDS011;66401;42.016;21.454;2023-05-10T01:14:19;4.30;;;3.90;;
62788;SDS011;66401;42.016;21.454;2023-05-10T01:16:47;4.13;;;3.53;;
62788;SDS011;66401;42.016;21.454;2023-05-10T01:19:19;7.87;;;4.53;;
62788;SDS011;66401;42.016;21.454;2023-05-10T01:27:44;4.23;;;3.83;;
62788;SDS011;66401;42.016;21.454;2023-05-10T01:35:58;6.43;;;4.60;;
62788;SDS011;66401;42.016;21.454;2023-05-10T01:38:41;4.70;;;3.83;;
62788;SDS011;66401;42.016;21.454;2023-05-10T01:41:16;4.70;;;4.17;;
62788;SDS011;66401;42.016;21.454;2023-05-10T01:46:17;6.03;;;4.53;;
62788;SDS011;66401;42.016;21.454;2023-05-10T01:49:08;5.50;;;4.90;;
62788;SDS011;66401;42.016;21.454;2023-05-10T01:51:47;5.90;;;4.97;;
62788;SDS011;66401;42.016;21.454;2023-05-10T01:54:17;7.50;;;4.83;;
62788;SDS011;66401;42.016;21.454;2023-05-10T01:56:45;5.27;;;4.70;;
62788;SDS011;66401;42.016;21.454;2023-05-10T01:59:16;5.20;;;4.73;;
62788;SDS011;66401;42.016;21.454;2023-05-10T02:01:44;5.23;;;4.67;;
62788;SDS011;66401;42.016;21.454;2023-05-10T02:04:12;5.57;;;5.00;;
62788;SDS011;66401;42.016;21.454;2023-05-10T02:06:40;5.43;;;4.93;;
62788;SDS011;66401;42.016;21.454;2023-05-10T02:09:07;9.03;;;4.97;;
62788;SDS011;66401;42.016;21.454;2023-05-10T02:11:37;5.50;;;4.63;;
62788;SDS011;66401;42.016;21.454;2023-05-10T02:14:05;6.10;;;4.50;;
62788;SDS011;66401;42.016;21.454;2023-05-10T02:16:34;5.40;;;4.53;;
62788;SDS011;66401;42.016;21.454;2023-05-10T02:19:02;7.23;;;5.37;;
62788;SDS011;66401;42.016;21.454;2023-05-10T02:21:28;5.40;;;4.90;;
62788;SDS011;66401;42.016;21.454;2023-05-10T02:23:56;5.43;;;4.93;;
62788;SDS011;66401;42.016;21.454;2023-05-10T02:26:23;5.83;;;5.13;;
62788;SDS011;66401;42.016;21.454;2023-05-10T02:28:50;6.47;;;4.90;;
62788;SDS011;66401;42.016;21.454;2023-05-10T02:31:17;6.00;;;4.70;;
62788;SDS011;66401;42.016;21.454;2023-05-10T02:33:44;6.43;;;5.10;;
62788;SDS011;66401;42.016;21.454;2023-05-10T02:36:11;4.83;;;4.27;;
62788;SDS011;66401;42.016;21.454;2023-05-10T02:38:39;4.67;;;4.27;;
62788;SDS011;66401;42.016;21.454;2023-05-10T02:41:06;5.03;;;4.63;;
62788;SDS011;66401;42.016;21.454;2023-05-10T02:43:34;6.40;;;5.67;;
62788;SDS011;66401;42.016;21.454;2023-05-10T02:46:01;4.83;;;4.37;;
62788;SDS011;66401;42.016;21.454;2023-05-10T02:48:28;5.53;;;5.00;;
62788;SDS011;66401;42.016;21.454;2023-05-10T02:50:55;4.67;;;4.13;;
62788;SDS011;66401;42.016;21.454;2023-05-10T02:53:30;6.70;;;4.60;;
62788;SDS011;66401;42.016;21.454;2023-05-10T02:55:57;5.10;;;4.70;;
62788;SDS011;66401;42.016;21.454;2023-05-10T02:58:27;4.73;;;4.23;;
62788;SDS011;66401;42.016;21.454;2023-05-10T03:00:52;5.10;;;4.20;;
62788;SDS011;66401;42.016;21.454;2023-05-10T03:03:18;7.27;;;3.93;;
62788;SDS011;66401;42.016;21.454;2023-05-10T03:05:44;4.57;;;4.13;;
62788;SDS011;66401;42.016;21.454;2023-05-10T03:08:10;4.63;;;4.23;;
62788;SDS011;66401;42.016;21.454;2023-05-10T03:10:38;5.37;;;4.87;;
62788;SDS011;66401;42.016;21.454;2023-05-10T03:13:27;5.13;;;4.27;;
62788;SDS011;66401;42.016;21.454;2023-05-10T03:21:13;6.47;;;4.80;;
62788;SDS011;66401;42.016;21.454;2023-05-10T03:23:43;5.60;;;5.00;;
62788;SDS011;66401;42.016;21.454;2023-05-10T03:26:23;4.27;;;3.97;;
62788;SDS011;66401;42.016;21.454;2023-05-10T03:28:51;8.23;;;4.50;;
62788;SDS011;66401;42.016;21.454;2023-05-10T03:31:18;5.53;;;4.40;;
62788;SDS011;66401;42.016;21.454;2023-05-10T03:33:50;7.30;;;5.60;;
62788;SDS011;66401;42.016;21.454;2023-05-10T03:36:17;7.30;;;5.20;;
62788;SDS011;66401;42.016;21.454;2023-05-10T03:38:44;6.47;;;5.07;;
62788;SDS011;66401;42.016;21.454;2023-05-10T03:41:09;7.80;;;4.87;;
62788;SDS011;66401;42.016;21.454;2023-05-10T03:43:35;5.00;;;4.50;;
62788;SDS011;66401;42.016;21.454;2023-05-10T03:46:04;6.10;;;5.03;;
62788;SDS011;66401;42.016;21.454;2023-05-10T03:48:31;5.47;;;4.73;;
62788;SDS011;66401;42.016;21.454;2023-05-10T03:50:57;6.90;;;5.13;;
62788;SDS011;66401;42.016;21.454;2023-05-10T03:53:23;4.83;;;4.03;;
62788;SDS011;66401;42.016;21.454;2023-05-10T03:55:48;5.57;;;4.90;;
62788;SDS011;66401;42.016;21.454;2023-05-10T03:58:14;5.47;;;4.77;;
62788;SDS011;66401;42.016;21.454;2023-05-10T04:00:40;5.53;;;4.87;;
62788;SDS011;66401;42.016;21.454;2023-05-10T04:03:10;6.40;;;4.63;;
62788;SDS011;66401;42.016;21.454;2023-05-10T04:05:36;6.17;;;5.23;;
62788;SDS011;66401;42.016;21.454;2023-05-10T04:08:02;5.43;;;4.93;;
62788;SDS011;66401;42.016;21.454;2023-05-10T04:10:28;8.80;;;5.07;;
62788;SDS011;66401;42.016;21.454;2023-05-10T04:12:54;6.33;;;5.13;;
62788;SDS011;66401;42.016;21.454;2023-05-10T04:15:19;9.30;;;6.23;;
62788;SDS011;66401;42.016;21.454;2023-05-10T04:17:45;9.03;;;6.50;;
62788;SDS011;66401;42.016;21.454;2023-05-10T04:20:11;7.33;;;5.97;;
62788;SDS011;66401;42.016;21.454;2023-05-10T04:32:58;10.57;;;6.90;;
62788;SDS011;66401;42.016;21.454;2023-05-10T04:35:23;9.80;;;7.70;;
62788;SDS011;66401;42.016;21.454;2023-05-10T04:40:32;13.63;;;9.07;;
62788;SDS011;66401;42.016;21.454;2023-05-10T04:42:58;12.53;;;8.90;;
62788;SDS011;66401;42.016;21.454;2023-05-10T04:45:23;13.60;;;9.87;;
62788;SDS011;66401;42.016;21.454;2023-05-10T04:47:48;16.13;;;9.23;;
62788;SDS011;66401;42.016;21.454;2023-05-10T04:50:14;13.73;;;9.87;;
62788;SDS011;66401;42.016;21.454;2023-05-10T05:03:01;12.87;;;9.20;;
62788;SDS011;66401;42.016;21.454;2023-05-10T05:20:57;10.30;;;7.43;;
62788;SDS011;66401;42.016;21.454;2023-05-10T05:23:23;8.83;;;6.33;;
62788;SDS011;66401;42.016;21.454;2023-05-10T05:25:51;7.40;;;5.73;;
62788;SDS011;66401;42.016;21.454;2023-05-10T05:28:20;8.23;;;5.50;;
62788;SDS011;66401;42.016;21.454;2023-05-10T05:30:46;6.93;;;5.47;;
62788;SDS011;66401;42.016;21.454;2023-05-10T05:33:13;6.20;;;5.50;;
62788;SDS011;66401;42.016;21.454;2023-05-10T05:35:39;8.17;;;6.10;;
62788;SDS011;66401;42.016;21.454;2023-05-10T05:38:04;10.73;;;7.20;;
62788;SDS011;66401;42.016;21.454;2023-05-10T05:40:30;11.10;;;7.07;;
62788;SDS011;66401;42.016;21.454;2023-05-10T05:42:55;6.60;;;5.77;;
62788;SDS011;66401;42.016;21.454;2023-05-10T05:45:21;6.10;;;4.90;;
62788;SDS011;66401;42.016;21.454;2023-05-10T05:47:46;5.83;;;4.77;;
62788;SDS011;66401;42.016;21.454;2023-05-10T05:50:12;4.87;;;4.40;;
62788;SDS011;66401;42.016;21.454;2023-05-10T05:52:37;6.40;;;4.67;;
62788;SDS011;66401;42.016;21.454;2023-05-10T05:55:03;5.47;;;4.50;;
62788;SDS011;66401;42.016;21.454;2023-05-10T05:57:30;5.87;;;5.00;;
62788;SDS011;66401;42.016;21.454;2023-05-10T05:59:56;8.80;;;5.10;;
62788;SDS011;66401;42.016;21.454;2023-05-10T06:02:21;6.20;;;5.33;;
62788;SDS011;66401;42.016;21.454;2023-05-10T06:04:47;5.93;;;5.40;;
62788;SDS011;66401;42.016;21.454;2023-05-10T06:07:12;6.07;;;5.43;;
62788;SDS011;66401;42.016;21.454;2023-05-10T06:09:37;10.50;;;6.23;;
62788;SDS011;66401;42.016;21.454;2023-05-10T06:12:03;7.23;;;5.20;;
62788;SDS011;66401;42.016;21.454;2023-05-10T06:14:28;7.50;;;5.13;;
62788;SDS011;66401;42.016;21.454;2023-05-10T06:16:54;6.20;;;5.60;;
62788;SDS011;66401;42.016;21.454;2023-05-10T06:19:20;8.47;;;4.87;;
62788;SDS011;66401;42.016;21.454;2023-05-10T06:21:45;6.00;;;5.00;;
62788;SDS011;66401;42.016;21.454;2023-05-10T06:24:10;5.77;;;5.17;;
62788;SDS011;66401;42.016;21.454;2023-05-10T06:26:36;7.47;;;5.50;;
62788;SDS011;66401;42.016;21.454;2023-05-10T06:29:02;5.73;;;4.83;;
62788;SDS011;66401;42.016;21.454;2023-05-10T06:31:27;6.40;;;5.17;;
62788;SDS011;66401;42.016;21.454;2023-05-10T06:33:53;6.13;;;5.53;;
62788;SDS011;66401;42.016;21.454;2023-05-10T06:36:18;10.53;;;6.17;;
62788;SDS011;66401;42.016;21.454;2023-05-10T06:38:44;13.60;;;7.43;;
62788;SDS011;66401;42.016;21.454;2023-05-10T06:41:09;16.53;;;9.30;;
62788;SDS011;66401;42.016;21.454;2023-05-10T06:43:35;6.87;;;5.50;;
62788;SDS011;66401;42.016;21.454;2023-05-10T06:46:00;8.57;;;6.03;;
62788;SDS011;66401;42.016;21.454;2023-05-10T06:48:26;10.67;;;6.47;;
62788;SDS011;66401;42.016;21.454;2023-05-10T06:50:51;5.80;;;5.30;;
62788;SDS011;66401;42.016;21.454;2023-05-10T06:53:17;9.87;;;6.10;;
62788;SDS011;66401;42.016;21.454;2023-05-10T06:55:42;9.73;;;6.20;;
62788;SDS011;66401;42.016;21.454;2023-05-10T06:58:08;5.27;;;4.77;;
62788;SDS011;66401;42.016;21.454;2023-05-10T07:00:33;5.57;;;5.07;;
62788;SDS011;66401;42.016;21.454;2023-05-10T07:02:59;5.67;;;4.37;;
62788;SDS011;66401;42.016;21.454;2023-05-10T07:05:25;5.90;;;5.27;;
62788;SDS011;66401;42.016;21.454;2023-05-10T07:07:52;6.03;;;4.70;;
62788;SDS011;66401;42.016;21.454;2023-05-10T07:10:18;7.70;;;4.77;;
62788;SDS011;66401;42.016;21.454;2023-05-10T07:12:43;5.97;;;4.97;;
62788;SDS011;66401;42.016;21.454;2023-05-10T07:15:09;6.57;;;4.47;;
62788;SDS011;66401;42.016;21.454;2023-05-10T07:17:34;4.47;;;4.03;;
62788;SDS011;66401;42.016;21.454;2023-05-10T07:20:00;5.60;;;4.33;;
62788;SDS011;66401;42.016;21.454;2023-05-10T07:22:26;4.37;;;3.90;;
62788;SDS011;66401;42.016;21.454;2023-05-10T07:24:52;7.33;;;5.17;;
62788;SDS011;66401;42.016;21.454;2023-05-10T07:27:17;4.83;;;3.90;;
62788;SDS011;66401;42.016;21.454;2023-05-10T07:29:43;6.40;;;4.90;;
62788;SDS011;66401;42.016;21.454;2023-05-10T07:32:08;5.47;;;4.50;;
62788;SDS011;66401;42.016;21.454;2023-05-10T07:34:34;4.63;;;3.97;;
62788;SDS011;66401;42.016;21.454;2023-05-10T07:36:59;4.63;;;4.10;;
62788;SDS011;66401;42.016;21.454;2023-05-10T07:39:26;6.97;;;4.50;;
62788;SDS011;66401;42.016;21.454;2023-05-10T07:41:52;6.80;;;5.23;;
62788;SDS011;66401;42.016;21.454;2023-05-10T07:44:17;5.97;;;5.00;;
62788;SDS011;66401;42.016;21.454;2023-05-10T07:46:45;7.60;;;5.53;;
62788;SDS011;66401;42.016;21.454;2023-05-10T07:49:10;5.67;;;4.73;;
62788;SDS011;66401;42.016;21.454;2023-05-10T07:51:36;4.57;;;4.17;;
62788;SDS011;66401;42.016;21.454;2023-05-10T07:54:01;4.20;;;3.90;;
62788;SDS011;66401;42.016;21.454;2023-05-10T07:56:28;5.63;;;5.03;;
62788;SDS011;66401;42.016;21.454;2023-05-10T07:58:58;4.60;;;4.00;;
62788;SDS011;66401;42.016;21.454;2023-05-10T08:01:25;5.03;;;4.50;;
62788;SDS011;66401;42.016;21.454;2023-05-10T08:03:51;5.87;;;4.00;;
62788;SDS011;66401;42.016;21.454;2023-05-10T08:06:18;4.40;;;3.70;;
62788;SDS011;66401;42.016;21.454;2023-05-10T08:08:47;4.53;;;4.13;;
62788;SDS011;66401;42.016;21.454;2023-05-10T08:11:18;3.83;;;3.40;;
62788;SDS011;66401;42.016;21.454;2023-05-10T08:13:44;7.33;;;4.07;;
62788;SDS011;66401;42.016;21.454;2023-05-10T08:16:10;3.70;;;3.20;;
62788;SDS011;66401;42.016;21.454;2023-05-10T08:18:36;5.27;;;3.53;;
62788;SDS011;66401;42.016;21.454;2023-05-10T08:21:02;4.07;;;3.60;;
62788;SDS011;66401;42.016;21.454;2023-05-10T08:23:29;4.23;;;3.83;;
62788;SDS011;66401;42.016;21.454;2023-05-10T08:25:54;5.10;;;3.60;;
62788;SDS011;66401;42.016;21.454;2023-05-10T08:28:20;4.83;;;3.47;;
62788;SDS011;66401;42.016;21.454;2023-05-10T08:30:46;4.27;;;3.60;;
62788;SDS011;66401;42.016;21.454;2023-05-10T08:33:12;4.03;;;3.33;;
62788;SDS011;66401;42.016;21.454;2023-05-10T08:35:37;4.67;;;4.00;;
62788;SDS011;66401;42.016;21.454;2023-05-10T08:38:03;5.27;;;4.07;;
62788;SDS011;66401;42.016;21.454;2023-05-10T08:40:28;7.37;;;3.73;;
62788;SDS011;66401;42.016;21.454;2023-05-10T08:43:07;3.87;;;3.50;;
62788;SDS011;66401;42.016;21.454;2023-05-10T08:45:36;4.20;;;3.60;;
62788;SDS011;66401;42.016;21.454;2023-05-10T08:48:05;3.83;;;3.53;;
62788;SDS011;66401;42.016;21.454;2023-05-10T08:50:32;4.47;;;3.47;;
62788;SDS011;66401;42.016;21.454;2023-05-10T08:53:01;3.90;;;3.10;;
62788;SDS011;66401;42.016;21.454;2023-05-10T08:55:30;5.00;;;3.07;;
62788;SDS011;66401;42.016;21.454;2023-05-10T08:57:58;3.40;;;3.10;;
62788;SDS011;66401;42.016;21.454;2023-05-10T09:00:25;3.03;;;2.80;;
62788;SDS011;66401;42.016;21.454;2023-05-10T09:02:51;3.47;;;3.17;;
62788;SDS011;66401;42.016;21.454;2023-05-10T09:05:17;4.10;;;2.90;;
62788;SDS011;66401;42.016;21.454;2023-05-10T09:07:43;4.70;;;3.23;;
62788;SDS011;66401;42.016;21.454;2023-05-10T09:10:09;4.70;;;3.33;;
62788;SDS011;66401;42.016;21.454;2023-05-10T09:12:36;5.27;;;4.07;;
62788;SDS011;66401;42.016;21.454;2023-05-10T09:15:02;3.97;;;3.10;;
62788;SDS011;66401;42.016;21.454;2023-05-10T09:17:30;5.80;;;3.20;;
62788;SDS011;66401;42.016;21.454;2023-05-10T09:19:59;5.27;;;4.00;;
62788;SDS011;66401;42.016;21.454;2023-05-10T09:22:25;5.10;;;3.70;;
62788;SDS011;66401;42.016;21.454;2023-05-10T09:25:07;4.57;;;3.70;;
62788;SDS011;66401;42.016;21.454;2023-05-10T09:27:38;6.60;;;3.37;;
62788;SDS011;66401;42.016;21.454;2023-05-10T09:30:06;7.33;;;3.10;;
62788;SDS011;66401;42.016;21.454;2023-05-10T09:32:39;4.77;;;3.70;;
62788;SDS011;66401;42.016;21.454;2023-05-10T09:35:14;5.90;;;3.47;;
62788;SDS011;66401;42.016;21.454;2023-05-10T09:37:42;4.13;;;3.00;;
62788;SDS011;66401;42.016;21.454;2023-05-10T09:40:28;4.23;;;3.10;;
62788;SDS011;66401;42.016;21.454;2023-05-10T09:42:55;4.37;;;3.20;;
62788;SDS011;66401;42.016;21.454;2023-05-10T09:45:22;4.33;;;2.50;;
62788;SDS011;66401;42.016;21.454;2023-05-10T09:47:48;5.03;;;3.10;;
62788;SDS011;66401;42.016;21.454;2023-05-10T09:50:14;3.07;;;2.73;;
62788;SDS011;66401;42.016;21.454;2023-05-10T09:52:52;5.40;;;3.50;;
62788;SDS011;66401;42.016;21.454;2023-05-10T09:55:24;5.57;;;3.33;;
62788;SDS011;66401;42.016;21.454;2023-05-10T09:58:05;3.73;;;3.10;;
62788;SDS011;66401;42.016;21.454;2023-05-10T10:00:41;3.13;;;2.83;;
62788;SDS011;66401;42.016;21.454;2023-05-10T10:03:12;3.10;;;2.70;;
62788;SDS011;66401;42.016;21.454;2023-05-10T10:05:40;3.63;;;2.93;;
62788;SDS011;66401;42.016;21.454;2023-05-10T10:08:07;3.33;;;2.73;;
62788;SDS011;66401;42.016;21.454;2023-05-10T10:10:33;3.00;;;2.80;;
62788;SDS011;66401;42.016;21.454;2023-05-10T10:12:59;3.17;;;2.70;;
62788;SDS011;66401;42.016;21.454;2023-05-10T10:15:25;3.20;;;2.90;;
62788;SDS011;66401;42.016;21.454;2023-05-10T10:17:51;4.83;;;2.33;;
62788;SDS011;66401;42.016;21.454;2023-05-10T10:20:18;2.97;;;2.77;;
62788;SDS011;66401;42.016;21.454;2023-05-10T10:22:46;3.47;;;3.17;;
62788;SDS011;66401;42.016;21.454;2023-05-10T10:25:12;4.07;;;2.77;;
62788;SDS011;66401;42.016;21.454;2023-05-10T10:35:58;3.03;;;2.83;;
62788;SDS011;66401;42.016;21.454;2023-05-10T10:38:25;2.83;;;2.63;;
62788;SDS011;66401;42.016;21.454;2023-05-10T10:41:03;7.20;;;2.90;;
62788;SDS011;66401;42.016;21.454;2023-05-10T10:43:35;2.73;;;2.53;;
62788;SDS011;66401;42.016;21.454;2023-05-10T10:46:13;2.50;;;2.03;;
62788;SDS011;66401;42.016;21.454;2023-05-10T10:48:43;4.17;;;2.97;;
62788;SDS011;66401;42.016;21.454;2023-05-10T10:51:12;2.80;;;2.60;;
62788;SDS011;66401;42.016;21.454;2023-05-10T10:53:38;2.27;;;2.00;;
62788;SDS011;66401;42.016;21.454;2023-05-10T10:56:12;2.43;;;2.23;;
62788;SDS011;66401;42.016;21.454;2023-05-10T10:58:40;2.67;;;2.40;;
62788;SDS011;66401;42.016;21.454;2023-05-10T11:03:39;3.30;;;2.33;;
62788;SDS011;66401;42.016;21.454;2023-05-10T11:06:05;3.03;;;2.40;;
62788;SDS011;66401;42.016;21.454;2023-05-10T11:08:34;4.27;;;2.53;;
62788;SDS011;66401;42.016;21.454;2023-05-10T11:11:08;5.00;;;2.83;;
62788;SDS011;66401;42.016;21.454;2023-05-10T11:16:17;2.20;;;2.10;;
62788;SDS011;66401;42.016;21.454;2023-05-10T11:21:31;3.33;;;1.80;;
62788;SDS011;66401;42.016;21.454;2023-05-10T11:23:58;2.20;;;2.00;;
62788;SDS011;66401;42.016;21.454;2023-05-10T11:26:33;2.47;;;2.27;;
62788;SDS011;66401;42.016;21.454;2023-05-10T11:29:07;5.43;;;2.03;;
62788;SDS011;66401;42.016;21.454;2023-05-10T11:31:33;5.50;;;2.50;;
62788;SDS011;66401;42.016;21.454;2023-05-10T11:33:59;1.90;;;1.80;;
62788;SDS011;66401;42.016;21.454;2023-05-10T11:36:32;1.80;;;1.67;;
62788;SDS011;66401;42.016;21.454;2023-05-10T11:38:59;2.23;;;2.03;;
62788;SDS011;66401;42.016;21.454;2023-05-10T11:41:26;1.87;;;1.77;;
62788;SDS011;66401;42.016;21.454;2023-05-10T11:43:55;1.37;;;1.23;;
62788;SDS011;66401;42.016;21.454;2023-05-10T11:46:24;1.93;;;1.83;;
62788;SDS011;66401;42.016;21.454;2023-05-10T11:48:53;1.83;;;1.73;;
62788;SDS011;66401;42.016;21.454;2023-05-10T11:51:24;5.43;;;1.87;;
62788;SDS011;66401;42.016;21.454;2023-05-10T11:53:52;2.37;;;1.73;;
62788;SDS011;66401;42.016;21.454;2023-05-10T11:56:18;1.47;;;1.37;;
62788;SDS011;66401;42.016;21.454;2023-05-10T11:58:44;1.60;;;1.50;;
62788;SDS011;66401;42.016;21.454;2023-05-10T12:01:10;2.63;;;1.47;;
62788;SDS011;66401;42.016;21.454;2023-05-10T12:03:36;1.47;;;1.37;;
62788;SDS011;66401;42.016;21.454;2023-05-10T12:06:02;1.53;;;1.43;;
62788;SDS011;66401;42.016;21.454;2023-05-10T12:08:29;1.70;;;1.60;;
62788;SDS011;66401;42.016;21.454;2023-05-10T12:11:16;1.47;;;1.40;;
62788;SDS011;66401;42.016;21.454;2023-05-10T12:13:43;1.80;;;1.70;;
62788;SDS011;66401;42.016;21.454;2023-05-10T12:16:18;5.60;;;1.60;;
62788;SDS011;66401;42.016;21.454;2023-05-10T12:18:48;1.73;;;1.63;;
62788;SDS011;66401;42.016;21.454;2023-05-10T12:21:18;1.73;;;1.60;;
62788;SDS011;66401;42.016;21.454;2023-05-10T12:23:53;1.90;;;1.73;;
62788;SDS011;66401;42.016;21.454;2023-05-10T12:26:23;1.70;;;1.60;;
62788;SDS011;66401;42.016;21.454;2023-05-10T12:28:52;2.93;;;1.87;;
62788;SDS011;66401;42.016;21.454;2023-05-10T12:31:18;2.03;;;1.70;;
62788;SDS011;66401;42.016;21.454;2023-05-10T12:33:44;4.13;;;1.80;;
62788;SDS011;66401;42.016;21.454;2023-05-10T12:36:11;1.60;;;1.50;;
62788;SDS011;66401;42.016;21.454;2023-05-10T12:38:41;1.60;;;1.50;;
62788;SDS011;66401;42.016;21.454;2023-05-10T12:41:09;1.73;;;1.63;;
62788;SDS011;66401;42.016;21.454;2023-05-10T12:43:38;2.03;;;1.90;;
62788;SDS011;66401;42.016;21.454;2023-05-10T12:46:08;4.07;;;2.67;;
62788;SDS011;66401;42.016;21.454;2023-05-10T12:48:35;2.37;;;1.97;;
62788;SDS011;66401;42.016;21.454;2023-05-10T12:51:02;2.00;;;1.43;;
62788;SDS011;66401;42.016;21.454;2023-05-10T12:53:28;1.63;;;1.53;;
62788;SDS011;66401;42.016;21.454;2023-05-10T12:55:54;1.80;;;1.70;;
62788;SDS011;66401;42.016;21.454;2023-05-10T12:58:19;5.43;;;1.80;;
62788;SDS011;66401;42.016;21.454;2023-05-10T13:00:45;1.70;;;1.60;;
62788;SDS011;66401;42.016;21.454;2023-05-10T13:03:11;1.80;;;1.70;;
62788;SDS011;66401;42.016;21.454;2023-05-10T13:05:37;2.00;;;1.60;;
62788;SDS011;66401;42.016;21.454;2023-05-10T13:08:03;1.70;;;1.60;;
62788;SDS011;66401;42.016;21.454;2023-05-10T13:10:29;1.77;;;1.63;;
62788;SDS011;66401;42.016;21.454;2023-05-10T13:12:55;1.83;;;1.73;;
62788;SDS011;66401;42.016;21.454;2023-05-10T13:15:21;3.03;;;1.67;;
62788;SDS011;66401;42.016;21.454;2023-05-10T13:17:47;2.30;;;1.53;;
62788;SDS011;66401;42.016;21.454;2023-05-10T13:20:12;1.40;;;1.40;;
62788;SDS011;66401;42.016;21.454;2023-05-10T13:22:38;2.10;;;1.67;;
62788;SDS011;66401;42.016;21.454;2023-05-10T13:25:03;1.40;;;1.30;;
62788;SDS011;66401;42.016;21.454;2023-05-10T13:27:29;1.37;;;1.20;;
62788;SDS011;66401;42.016;21.454;2023-05-10T13:29:55;2.47;;;1.57;;
62788;SDS011;66401;42.016;21.454;2023-05-10T13:32:21;5.67;;;1.53;;
62788;SDS011;66401;42.016;21.454;2023-05-10T13:34:47;1.83;;;1.50;;
62788;SDS011;66401;42.016;21.454;2023-05-10T13:37:12;1.50;;;1.40;;
62788;SDS011;66401;42.016;21.454;2023-05-10T13:39:38;1.63;;;1.53;;
62788;SDS011;66401;42.016;21.454;2023-05-10T13:42:03;1.33;;;1.30;;
62788;SDS011;66401;42.016;21.454;2023-05-10T13:44:30;2.30;;;1.13;;
62788;SDS011;66401;42.016;21.454;2023-05-10T13:46:56;1.47;;;1.37;;
62788;SDS011;66401;42.016;21.454;2023-05-10T13:49:22;1.33;;;1.23;;
62788;SDS011;66401;42.016;21.454;2023-05-10T13:51:47;1.20;;;1.10;;
62788;SDS011;66401;42.016;21.454;2023-05-10T13:54:13;1.83;;;1.53;;
62788;SDS011;66401;42.016;21.454;2023-05-10T13:56:38;2.00;;;1.80;;
62788;SDS011;66401;42.016;21.454;2023-05-10T13:59:06;4.17;;;2.03;;
62788;SDS011;66401;42.016;21.454;2023-05-10T14:01:32;1.80;;;1.70;;
62788;SDS011;66401;42.016;21.454;2023-05-10T14:03:58;1.70;;;1.60;;
62788;SDS011;66401;42.016;21.454;2023-05-10T14:06:24;1.60;;;1.50;;
62788;SDS011;66401;42.016;21.454;2023-05-10T14:08:50;7.07;;;3.50;;
62788;SDS011;66401;42.016;21.454;2023-05-10T14:11:15;3.83;;;2.70;;
62788;SDS011;66401;42.016;21.454;2023-05-10T14:13:41;2.23;;;1.90;;
62788;SDS011;66401;42.016;21.454;2023-05-10T14:16:06;2.27;;;1.80;;
62788;SDS011;66401;42.016;21.454;2023-05-10T14:18:32;1.77;;;1.67;;
62788;SDS011;66401;42.016;21.454;2023-05-10T14:20:57;1.97;;;1.80;;
62788;SDS011;66401;42.016;21.454;2023-05-10T14:23:23;4.53;;;2.53;;
62788;SDS011;66401;42.016;21.454;2023-05-10T14:25:49;2.80;;;2.23;;
62788;SDS011;66401;42.016;21.454;2023-05-10T14:28:16;2.37;;;2.27;;
62788;SDS011;66401;42.016;21.454;2023-05-10T14:30:43;3.20;;;1.77;;
62788;SDS011;66401;42.016;21.454;2023-05-10T14:33:08;2.07;;;1.90;;
62788;SDS011;66401;42.016;21.454;2023-05-10T14:35:35;4.50;;;1.93;;
62788;SDS011;66401;42.016;21.454;2023-05-10T14:38:03;4.13;;;2.07;;
62788;SDS011;66401;42.016;21.454;2023-05-10T14:40:29;5.63;;;3.00;;
62788;SDS011;66401;42.016;21.454;2023-05-10T14:42:55;3.43;;;2.23;;
62788;SDS011;66401;42.016;21.454;2023-05-10T14:45:21;2.00;;;1.90;;
62788;SDS011;66401;42.016;21.454;2023-05-10T14:47:47;2.10;;;1.90;;
62788;SDS011;66401;42.016;21.454;2023-05-10T14:50:13;4.03;;;1.80;;
62788;SDS011;66401;42.016;21.454;2023-05-10T14:52:39;1.83;;;1.73;;
62788;SDS011;66401;42.016;21.454;2023-05-10T14:55:04;2.50;;;2.30;;
62788;SDS011;66401;42.016;21.454;2023-05-10T14:57:30;3.07;;;1.97;;
62788;SDS011;66401;42.016;21.454;2023-05-10T14:59:56;2.13;;;2.00;;
62788;SDS011;66401;42.016;21.454;2023-05-10T15:02:21;1.70;;;1.60;;
62788;SDS011;66401;42.016;21.454;2023-05-10T15:04:47;3.03;;;2.20;;
62788;SDS011;66401;42.016;21.454;2023-05-10T15:07:12;2.00;;;1.90;;
62788;SDS011;66401;42.016;21.454;2023-05-10T15:09:40;2.43;;;2.00;;
62788;SDS011;66401;42.016;21.454;2023-05-10T15:12:06;3.60;;;1.80;;
62788;SDS011;66401;42.016;21.454;2023-05-10T15:14:31;1.67;;;1.57;;
62788;SDS011;66401;42.016;21.454;2023-05-10T15:16:58;3.70;;;2.10;;
62788;SDS011;66401;42.016;21.454;2023-05-10T15:19:23;1.90;;;1.80;;
62788;SDS011;66401;42.016;21.454;2023-05-10T15:21:49;1.67;;;1.57;;
62788;SDS011;66401;42.016;21.454;2023-05-10T15:24:14;2.30;;;2.20;;
62788;SDS011;66401;42.016;21.454;2023-05-10T15:26:40;5.30;;;2.00;;
62788;SDS011;66401;42.016;21.454;2023-05-10T15:29:06;2.07;;;1.87;;
62788;SDS011;66401;42.016;21.454;2023-05-10T15:31:31;2.90;;;2.30;;
62788;SDS011;66401;42.016;21.454;2023-05-10T15:33:59;1.87;;;1.77;;
62788;SDS011;66401;42.016;21.454;2023-05-10T15:36:27;2.30;;;2.10;;
62788;SDS011;66401;42.016;21.454;2023-05-10T15:38:53;1.93;;;1.83;;
62788;SDS011;66401;42.016;21.454;2023-05-10T15:41:19;2.07;;;1.97;;
62788;SDS011;66401;42.016;21.454;2023-05-10T15:43:45;2.00;;;1.90;;
62788;SDS011;66401;42.016;21.454;2023-05-10T15:46:11;1.90;;;1.80;;
62788;SDS011;66401;42.016;21.454;2023-05-10T15:48:36;4.17;;;2.10;;